createdAt,value
2024-01-04T00:00:33.379Z,33.63
2024-01-04T00:01:44.951Z,34.50
2024-01-04T00:06:55.526Z,39.63
2024-01-04T00:08:07.143Z,43.55
2024-01-04T00:09:18.759Z,32.70
2024-01-04T00:10:30.324Z,36.42
2024-01-04T00:11:41.964Z,32.40
2024-01-04T00:12:54.598Z,34.00
2024-01-04T00:14:08.787Z,35.78
2024-01-04T00:15:20.486Z,29.60
2024-01-04T00:16:35.087Z,31.45
2024-01-04T00:17:49.611Z,32.00
2024-01-04T00:19:01.370Z,25.27
2024-01-04T00:20:12.992Z,25.70
2024-01-04T00:21:24.460Z,27.02
2024-01-04T00:22:36.915Z,26.80
2024-01-04T00:23:48.627Z,27.67
2024-01-04T00:25:00.614Z,30.45
2024-01-04T00:26:12.508Z,34.22
2024-01-04T00:27:24.091Z,33.38
2024-01-04T00:28:38.941Z,36.05
2024-01-04T00:29:50.622Z,31.30
2024-01-04T00:31:02.256Z,30.42
2024-01-04T00:32:13.855Z,33.95
2024-01-04T00:33:25.540Z,37.60
2024-01-04T00:34:37.422Z,31.40
2024-01-04T00:35:49.109Z,33.13
2024-01-04T00:37:00.714Z,31.40
2024-01-04T00:38:12.344Z,25.52
2024-01-04T00:39:25.506Z,30.35
2024-01-04T00:40:39.531Z,32.10
2024-01-04T00:41:52.009Z,30.08
2024-01-04T00:43:05.346Z,32.53
2024-01-04T00:44:16.857Z,34.08
2024-01-04T00:45:28.420Z,30.08
2024-01-04T00:46:39.954Z,31.85
2024-01-04T00:47:51.645Z,31.23
2024-01-04T00:49:03.488Z,32.90
2024-01-04T00:50:15.189Z,34.38
2024-01-04T00:51:26.973Z,33.65
2024-01-04T00:52:38.543Z,28.65
2024-01-04T00:53:50.133Z,30.17
2024-01-04T00:55:01.731Z,23.73
2024-01-04T00:56:13.325Z,20.45
2024-01-04T00:57:24.918Z,23.45
2024-01-04T00:58:36.481Z,20.35
2024-01-04T00:59:48.072Z,18.52
2024-01-04T01:00:59.592Z,26.63
2024-01-04T01:02:11.124Z,23.20
2024-01-04T01:03:22.818Z,24.83
2024-01-04T01:04:34.583Z,24.77
2024-01-04T01:05:46.145Z,26.20
2024-01-04T01:06:57.834Z,23.70
2024-01-04T01:08:09.389Z,23.52
2024-01-04T01:09:20.957Z,23.98
2024-01-04T01:10:33.553Z,39.25
2024-01-04T01:11:45.186Z,25.38
2024-01-04T01:12:56.862Z,25.33
2024-01-04T01:14:09.183Z,22.88
2024-01-04T01:15:20.809Z,24.98
2024-01-04T01:16:32.339Z,28.02
2024-01-04T01:17:44.270Z,28.40
2024-01-04T01:18:56.143Z,26.30
2024-01-04T01:20:08.681Z,30.45
2024-01-04T01:21:20.254Z,29.05
2024-01-04T01:22:31.826Z,28.98
2024-01-04T01:23:43.351Z,28.30
2024-01-04T01:24:54.967Z,28.35
2024-01-04T01:26:06.610Z,26.52
2024-01-04T01:27:18.153Z,25.90
2024-01-04T01:28:30.166Z,24.38
2024-01-04T01:29:41.741Z,26.02
2024-01-04T01:30:53.434Z,24.08
2024-01-04T01:32:05.124Z,25.17
2024-01-04T01:33:16.733Z,24.33
2024-01-04T01:34:28.317Z,27.42
2024-01-04T01:35:39.889Z,25.88
2024-01-04T01:36:52.108Z,28.08
2024-01-04T01:38:03.715Z,25.90
2024-01-04T01:39:15.234Z,27.40
2024-01-04T01:40:26.829Z,22.85
2024-01-04T01:41:38.635Z,19.30
2024-01-04T01:42:50.451Z,20.88
2024-01-04T01:44:01.964Z,21.92
2024-01-04T01:45:13.529Z,21.35
2024-01-04T01:46:25.154Z,27.45
2024-01-04T01:47:36.834Z,26.98
2024-01-04T01:48:48.525Z,21.90
2024-01-04T01:50:00.190Z,14.65
2024-01-04T01:51:11.875Z,16.98
2024-01-04T01:52:23.508Z,15.55
2024-01-04T01:53:35.714Z,22.52
2024-01-04T01:54:50.352Z,16.23
2024-01-04T01:56:01.957Z,19.30
2024-01-04T01:57:13.544Z,19.38
2024-01-04T01:58:25.094Z,18.77
2024-01-04T01:59:37.610Z,19.75
2024-01-04T02:00:49.260Z,18.33
2024-01-04T02:02:00.915Z,15.40
2024-01-04T02:03:13.957Z,18.85
2024-01-04T02:04:25.597Z,15.35
2024-01-04T02:05:37.214Z,20.42
2024-01-04T02:06:48.806Z,21.33
2024-01-04T02:08:00.494Z,18.42
2024-01-04T02:09:12.163Z,20.55
2024-01-04T02:10:23.735Z,17.05
2024-01-04T02:11:35.308Z,18.95
2024-01-04T02:12:46.913Z,19.17
2024-01-04T02:13:58.472Z,16.92
2024-01-04T02:15:10.198Z,16.10
2024-01-04T02:16:21.926Z,17.10
2024-01-04T02:17:33.623Z,17.55
2024-01-04T02:18:46.063Z,18.35
2024-01-04T02:19:58.345Z,18.63
2024-01-04T02:21:10.702Z,18.58
2024-01-04T02:22:22.298Z,19.02
2024-01-04T02:23:33.874Z,17.85
2024-01-04T02:24:45.640Z,17.98
2024-01-04T02:25:57.410Z,17.92
2024-01-04T02:27:09.454Z,18.52
2024-01-04T02:28:21.127Z,21.83
2024-01-04T02:29:32.713Z,19.45
2024-01-04T02:30:44.334Z,19.50
2024-01-04T02:31:55.906Z,18.67
2024-01-04T02:33:07.629Z,22.10
2024-01-04T02:34:19.307Z,19.38
2024-01-04T02:35:30.942Z,22.67
2024-01-04T02:36:42.533Z,18.17
2024-01-04T02:37:54.120Z,19.52
2024-01-04T02:39:05.969Z,20.02
2024-01-04T02:40:17.541Z,19.50
2024-01-04T02:41:29.041Z,18.65
2024-01-04T02:42:40.585Z,19.52
2024-01-04T02:43:52.391Z,19.33
2024-01-04T02:45:04.043Z,17.77
2024-01-04T02:46:16.037Z,17.60
2024-01-04T02:47:27.561Z,15.23
2024-01-04T02:48:39.480Z,19.23
2024-01-04T02:49:51.249Z,16.70
2024-01-04T02:51:02.836Z,17.95
2024-01-04T02:52:14.447Z,17.70
2024-01-04T02:53:25.963Z,17.35
2024-01-04T02:54:37.470Z,16.65
2024-01-04T02:55:49.024Z,19.38
2024-01-04T02:57:00.668Z,16.63
2024-01-04T02:58:12.279Z,17.10
2024-01-04T02:59:23.954Z,16.20
2024-01-04T03:00:35.586Z,16.85
2024-01-04T03:01:49.729Z,18.42
2024-01-04T03:03:01.417Z,16.52
2024-01-04T03:04:13.155Z,16.45
2024-01-04T03:05:24.728Z,19.55
2024-01-04T03:06:36.358Z,18.17
2024-01-04T03:07:47.989Z,16.77
2024-01-04T03:08:59.668Z,15.57
2024-01-04T03:10:11.397Z,14.57
2024-01-04T03:11:23.060Z,13.93
2024-01-04T03:12:34.588Z,14.68
2024-01-04T03:13:47.976Z,16.33
2024-01-04T03:15:00.452Z,16.02
2024-01-04T03:16:12.229Z,16.23
2024-01-04T03:17:23.770Z,15.00
2024-01-04T03:18:38.482Z,15.70
2024-01-04T03:19:50.102Z,16.58
2024-01-04T03:21:06.097Z,15.68
2024-01-04T03:22:17.688Z,15.75
2024-01-04T03:23:29.226Z,15.48
2024-01-04T03:24:40.745Z,19.00
2024-01-04T03:25:52.318Z,16.58
2024-01-04T03:27:04.380Z,18.50
2024-01-04T03:28:16.035Z,13.85
2024-01-04T03:29:27.553Z,15.88
2024-01-04T03:30:39.168Z,15.85
2024-01-04T03:31:50.665Z,16.40
2024-01-04T03:33:02.387Z,15.65
2024-01-04T03:34:14.410Z,15.68
2024-01-04T03:35:26.076Z,17.08
2024-01-04T03:36:37.700Z,17.75
2024-01-04T03:37:49.216Z,18.25
2024-01-04T03:39:00.900Z,15.95
2024-01-04T03:40:12.517Z,17.30
2024-01-04T03:41:24.114Z,18.10
2024-01-04T03:42:35.634Z,19.23
2024-01-04T03:43:47.269Z,17.08
2024-01-04T03:44:59.152Z,17.65
2024-01-04T03:46:12.371Z,17.00
2024-01-04T03:47:24.860Z,16.55
2024-01-04T03:48:36.598Z,20.60
2024-01-04T03:49:48.348Z,15.98
2024-01-04T03:51:00.809Z,17.85
2024-01-04T03:52:12.520Z,18.52
2024-01-04T03:53:24.050Z,15.98
2024-01-04T03:54:35.628Z,18.02
2024-01-04T03:55:47.197Z,18.83
2024-01-04T03:56:58.875Z,19.73
2024-01-04T03:58:10.412Z,18.40
2024-01-04T03:59:22.194Z,18.42
2024-01-04T04:00:33.713Z,25.52
2024-01-04T04:01:48.377Z,38.67
2024-01-04T04:03:00.070Z,34.50
2024-01-04T04:04:11.901Z,37.20
2024-01-04T04:05:23.590Z,31.60
2024-01-04T04:06:35.317Z,27.02
2024-01-04T04:07:46.903Z,19.85
2024-01-04T04:08:58.543Z,16.38
2024-01-04T04:10:10.384Z,17.88
2024-01-04T04:11:21.931Z,16.02
2024-01-04T04:12:33.467Z,16.50
2024-01-04T04:13:45.284Z,17.42
2024-01-04T04:14:56.855Z,17.95
2024-01-04T04:16:08.625Z,18.98
2024-01-04T04:17:21.679Z,15.75
2024-01-04T04:18:33.314Z,18.02
2024-01-04T04:19:45.297Z,17.38
2024-01-04T04:20:56.882Z,16.63
2024-01-04T04:22:08.434Z,18.20
2024-01-04T04:23:20.032Z,14.52
2024-01-04T04:24:32.573Z,17.65
2024-01-04T04:25:44.056Z,15.02
2024-01-04T04:26:55.681Z,18.20
2024-01-04T04:28:08.017Z,15.77
2024-01-04T04:29:19.581Z,14.50
2024-01-04T04:30:31.373Z,14.50
2024-01-04T04:31:42.986Z,16.65
2024-01-04T04:32:54.716Z,13.43
2024-01-04T04:34:06.521Z,17.45
2024-01-04T04:35:18.108Z,15.80
2024-01-04T04:36:29.657Z,17.25
2024-01-04T04:37:41.625Z,15.82
2024-01-04T04:38:53.201Z,18.98
2024-01-04T04:40:05.162Z,16.25
2024-01-04T04:41:17.238Z,17.92
2024-01-04T04:42:29.081Z,21.60
2024-01-04T04:43:40.707Z,19.08
2024-01-04T04:44:52.283Z,18.55
2024-01-04T04:46:09.826Z,14.85
2024-01-04T04:47:21.431Z,25.15
2024-01-04T04:48:33.054Z,43.83
2024-01-04T04:49:44.763Z,22.50
2024-01-04T04:50:56.406Z,15.10
2024-01-04T04:52:07.988Z,27.95
2024-01-04T04:53:19.588Z,27.58
2024-01-04T04:54:31.353Z,23.92
2024-01-04T04:55:42.891Z,19.42
2024-01-04T04:56:54.435Z,17.23
2024-01-04T04:58:06.058Z,14.55
2024-01-04T04:59:17.925Z,16.25
2024-01-04T05:00:29.497Z,19.98
2024-01-04T05:01:45.418Z,18.08
2024-01-04T05:02:57.160Z,18.77
2024-01-04T05:04:09.281Z,19.55
2024-01-04T05:05:21.046Z,19.05
2024-01-04T05:06:32.896Z,18.45
2024-01-04T05:07:44.887Z,19.10
2024-01-04T05:08:56.855Z,18.95
2024-01-04T05:10:09.143Z,18.48
2024-01-04T05:11:20.792Z,22.60
2024-01-04T05:12:33.100Z,18.85
2024-01-04T05:13:47.365Z,22.02
2024-01-04T05:14:59.827Z,27.15
2024-01-04T05:16:11.578Z,27.40
2024-01-04T05:17:23.334Z,23.52
2024-01-04T05:18:35.220Z,22.67
2024-01-04T05:19:47.023Z,19.02
2024-01-04T05:20:59.260Z,21.55
2024-01-04T05:22:10.818Z,24.35
2024-01-04T05:23:22.361Z,23.15
2024-01-04T05:24:33.947Z,22.30
2024-01-04T05:25:45.870Z,21.83
2024-01-04T05:26:57.399Z,18.77
2024-01-04T05:28:08.948Z,19.95
2024-01-04T05:29:20.495Z,16.73
2024-01-04T05:30:32.428Z,18.45
2024-01-04T05:31:43.985Z,16.58
2024-01-04T05:32:55.634Z,15.60
2024-01-04T05:34:07.521Z,15.10
2024-01-04T05:35:19.187Z,16.42
2024-01-04T05:36:31.482Z,17.15
2024-01-04T05:37:43.054Z,15.02
2024-01-04T05:38:54.587Z,13.52
2024-01-04T05:40:06.722Z,15.23
2024-01-04T05:41:19.824Z,15.52
2024-01-04T05:42:31.457Z,16.13
2024-01-04T05:43:43.132Z,15.35
2024-01-04T05:44:54.830Z,19.52
2024-01-04T05:46:06.428Z,17.08
2024-01-04T05:47:18.578Z,18.63
2024-01-04T05:48:30.348Z,20.25
2024-01-04T05:49:42.117Z,17.30
2024-01-04T05:50:53.985Z,22.30
2024-01-04T05:52:05.858Z,24.65
2024-01-04T05:53:18.556Z,26.92
2024-01-04T05:54:30.168Z,29.15
2024-01-04T05:55:41.697Z,31.38
2024-01-04T05:56:53.267Z,31.40
2024-01-04T05:58:04.990Z,24.23
2024-01-04T05:59:17.280Z,24.88
2024-01-04T06:00:28.943Z,26.83
2024-01-04T06:01:40.602Z,26.83
2024-01-04T06:02:52.251Z,25.92
2024-01-04T06:04:03.966Z,23.67
2024-01-04T06:05:15.720Z,19.73
2024-01-04T06:06:27.468Z,18.67
2024-01-04T06:07:39.050Z,17.20
2024-01-04T06:08:50.645Z,20.17
2024-01-04T06:10:02.310Z,18.20
2024-01-04T06:11:13.886Z,19.17
2024-01-04T06:12:25.544Z,20.38
2024-01-04T06:13:37.887Z,20.20
2024-01-04T06:14:50.613Z,20.05
2024-01-04T06:16:05.648Z,22.83
2024-01-04T06:17:17.182Z,22.00
2024-01-04T06:18:28.934Z,20.30
2024-01-04T06:19:40.779Z,21.98
2024-01-04T06:20:52.514Z,18.63
2024-01-04T06:22:04.243Z,20.42
2024-01-04T06:23:16.997Z,20.95
2024-01-04T06:24:28.596Z,20.15
2024-01-04T06:25:40.188Z,19.88
2024-01-04T06:26:52.563Z,20.98
2024-01-04T06:28:04.333Z,22.88
2024-01-04T06:29:16.140Z,19.20
2024-01-04T06:30:27.965Z,19.40
2024-01-04T06:31:39.593Z,18.50
2024-01-04T06:32:51.216Z,18.15
2024-01-04T06:34:03.007Z,17.13
2024-01-04T06:35:14.607Z,18.65
2024-01-04T06:36:26.360Z,20.27
2024-01-04T06:37:38.080Z,18.00
2024-01-04T06:38:51.818Z,18.25
2024-01-04T06:40:07.165Z,18.17
2024-01-04T06:41:20.536Z,18.02
2024-01-04T06:42:32.061Z,14.65
2024-01-04T06:43:43.602Z,18.30
2024-01-04T06:44:55.246Z,16.88
2024-01-04T06:46:06.900Z,17.23
2024-01-04T06:47:18.484Z,17.83
2024-01-04T06:48:30.202Z,17.52
2024-01-04T06:49:42.884Z,19.38
2024-01-04T06:50:54.737Z,19.67
2024-01-04T06:52:06.800Z,14.55
2024-01-04T06:53:18.377Z,13.55
2024-01-04T06:54:29.922Z,13.40
2024-01-04T06:55:41.854Z,11.55
2024-01-04T06:56:53.343Z,14.05
2024-01-04T06:58:05.558Z,11.73
2024-01-04T06:59:17.097Z,10.63
2024-01-04T07:00:28.781Z,14.05
2024-01-04T07:01:40.422Z,11.68
2024-01-04T07:02:53.137Z,11.77
2024-01-04T07:04:04.900Z,12.68
2024-01-04T07:05:16.750Z,12.63
2024-01-04T07:06:28.322Z,11.60
2024-01-04T07:07:39.991Z,12.90
2024-01-04T07:08:51.677Z,12.05
2024-01-04T07:10:03.686Z,11.80
2024-01-04T07:11:15.261Z,15.02
2024-01-04T07:12:26.993Z,15.35
2024-01-04T07:13:38.634Z,14.73
2024-01-04T07:14:50.239Z,13.55
2024-01-04T07:16:07.892Z,12.77
2024-01-04T07:17:19.475Z,13.02
2024-01-04T07:18:31.174Z,13.35
2024-01-04T07:19:44.249Z,15.30
2024-01-04T07:20:55.856Z,16.10
2024-01-04T07:22:07.568Z,15.05
2024-01-04T07:23:20.882Z,15.70
2024-01-04T07:24:32.563Z,14.38
2024-01-04T07:25:44.240Z,17.58
2024-01-04T07:26:55.870Z,15.82
2024-01-04T07:28:07.386Z,18.08
2024-01-04T07:29:18.884Z,16.40
2024-01-04T07:30:30.564Z,14.95
2024-01-04T07:31:42.129Z,13.52
2024-01-04T07:32:53.764Z,22.27
2024-01-04T07:34:05.905Z,21.92
2024-01-04T07:35:20.450Z,17.13
2024-01-04T07:36:32.105Z,18.15
2024-01-04T07:37:44.550Z,17.55
2024-01-04T07:38:56.124Z,16.77
2024-01-04T07:40:09.120Z,17.55
2024-01-04T07:41:20.823Z,17.52
2024-01-04T07:42:32.452Z,14.40
2024-01-04T07:43:44.163Z,14.27
2024-01-04T07:45:02.471Z,12.88
2024-01-04T07:46:19.144Z,16.25
2024-01-04T07:47:30.919Z,14.60
2024-01-04T07:48:42.607Z,16.33
2024-01-04T07:49:54.950Z,15.10
2024-01-04T07:51:06.905Z,17.73
2024-01-04T07:52:18.590Z,15.32
2024-01-04T07:53:30.268Z,13.52
2024-01-04T07:54:48.302Z,12.35
2024-01-04T07:56:02.982Z,14.18
2024-01-04T07:57:15.302Z,10.10
2024-01-04T07:58:27.005Z,9.70
2024-01-04T07:59:38.512Z,13.57
2024-01-04T08:00:50.297Z,12.63
2024-01-04T08:02:01.893Z,13.65
2024-01-04T08:03:13.657Z,14.23
2024-01-04T08:04:25.440Z,12.45
2024-01-04T08:05:37.199Z,12.70
2024-01-04T08:06:51.808Z,11.18
2024-01-04T08:08:03.431Z,10.30
2024-01-04T08:09:15.076Z,10.88
2024-01-04T08:10:27.596Z,9.98
2024-01-04T08:11:42.027Z,7.97
2024-01-04T08:12:53.541Z,9.60
2024-01-04T08:14:05.145Z,10.75
2024-01-04T08:15:16.841Z,11.13
2024-01-04T08:16:28.450Z,9.98
2024-01-04T08:17:41.491Z,10.52
2024-01-04T08:18:53.252Z,11.75
2024-01-04T08:20:06.350Z,11.38
2024-01-04T08:21:18.186Z,9.77
2024-01-04T08:22:29.812Z,11.32
2024-01-04T08:23:44.453Z,8.70
2024-01-04T08:24:56.140Z,10.10
2024-01-04T08:26:07.811Z,10.50
2024-01-04T08:27:20.317Z,11.00
2024-01-04T08:28:32.668Z,13.30
2024-01-04T08:29:47.437Z,11.88
2024-01-04T08:31:01.205Z,11.98
2024-01-04T08:32:13.042Z,14.90
2024-01-04T08:33:24.794Z,14.32
2024-01-04T08:34:36.624Z,14.00
2024-01-04T08:35:48.321Z,15.52
2024-01-04T08:36:59.871Z,15.48
2024-01-04T08:38:11.502Z,15.25
2024-01-04T08:39:23.360Z,14.45
2024-01-04T08:40:36.370Z,16.25
2024-01-04T08:41:48.011Z,14.90
2024-01-04T08:42:59.688Z,14.52
2024-01-04T08:44:11.208Z,15.38
2024-01-04T08:45:22.883Z,17.88
2024-01-04T08:46:38.966Z,15.63
2024-01-04T08:47:50.722Z,14.68
2024-01-04T08:49:05.132Z,17.05
2024-01-04T08:50:18.257Z,16.85
2024-01-04T08:51:30.015Z,13.50
2024-01-04T08:52:41.614Z,16.50
2024-01-04T08:53:53.255Z,16.77
2024-01-04T08:55:04.958Z,14.27
2024-01-04T08:56:16.535Z,12.00
2024-01-04T08:57:28.178Z,10.05
2024-01-04T08:58:39.772Z,14.00
2024-01-04T08:59:51.450Z,15.13
2024-01-04T09:01:03.052Z,14.23
2024-01-04T09:02:14.999Z,14.65
2024-01-04T09:03:26.593Z,13.80
2024-01-04T09:04:38.253Z,15.75
2024-01-04T09:05:49.954Z,16.45
2024-01-04T09:07:02.131Z,15.88
2024-01-04T09:08:13.650Z,14.07
2024-01-04T09:09:25.243Z,14.52
2024-01-04T09:10:37.002Z,15.80
2024-01-04T09:11:50.468Z,14.90
2024-01-04T09:13:02.742Z,16.73
2024-01-04T09:14:14.315Z,18.23
2024-01-04T09:15:26.517Z,18.65
2024-01-04T09:16:39.872Z,14.18
2024-01-04T09:17:51.741Z,16.02
2024-01-04T09:19:03.559Z,16.00
2024-01-04T09:20:15.328Z,17.33
2024-01-04T09:21:26.930Z,16.88
2024-01-04T09:22:38.534Z,17.13
2024-01-04T09:23:52.062Z,17.40
2024-01-04T09:25:05.054Z,19.60
2024-01-04T09:26:16.618Z,20.45
2024-01-04T09:27:28.235Z,18.27
2024-01-04T09:28:39.810Z,18.95
2024-01-04T09:29:51.652Z,19.65
2024-01-04T09:31:03.966Z,21.02
2024-01-04T09:32:15.601Z,20.05
2024-01-04T09:33:27.256Z,20.35
2024-01-04T09:34:38.908Z,22.98
2024-01-04T09:35:50.777Z,19.35
2024-01-04T09:37:02.372Z,20.10
2024-01-04T09:38:13.953Z,20.13
2024-01-04T09:39:25.833Z,18.25
2024-01-04T09:40:37.513Z,19.63
2024-01-04T09:41:49.333Z,18.67
2024-01-04T09:43:03.409Z,18.30
2024-01-04T09:44:15.490Z,20.30
2024-01-04T09:45:29.327Z,17.52
2024-01-04T09:46:41.451Z,20.48
2024-01-04T09:47:57.540Z,20.00
2024-01-04T09:49:14.447Z,20.73
2024-01-04T09:50:26.320Z,37.58
2024-01-04T09:51:41.576Z,24.60
2024-01-04T09:52:57.409Z,19.67
2024-01-04T09:54:10.374Z,18.15
2024-01-04T09:55:22.353Z,16.05
2024-01-04T09:56:39.092Z,18.85
2024-01-04T09:57:50.772Z,18.05
2024-01-04T09:59:02.385Z,15.93
2024-01-04T10:00:14.279Z,16.65
2024-01-04T10:01:37.079Z,15.52
2024-01-04T10:02:51.055Z,16.40
2024-01-04T10:04:07.672Z,14.57
2024-01-04T10:05:20.208Z,16.13
2024-01-04T10:06:33.550Z,14.77
2024-01-04T10:07:47.645Z,14.20
2024-01-04T10:09:05.506Z,15.48
2024-01-04T10:10:20.555Z,16.17
2024-01-04T10:11:34.407Z,13.00
2024-01-04T10:12:46.447Z,12.32
2024-01-04T10:13:58.436Z,13.65
2024-01-04T10:15:12.925Z,13.13
2024-01-04T10:16:24.575Z,13.27
2024-01-04T10:17:37.121Z,12.10
2024-01-04T10:18:48.803Z,13.07
2024-01-04T10:20:00.577Z,12.65
2024-01-04T10:21:12.145Z,13.32
2024-01-04T10:22:24.272Z,12.80
2024-01-04T10:23:35.774Z,15.30
2024-01-04T10:24:48.527Z,15.65
2024-01-04T10:26:07.742Z,13.48
2024-01-04T10:27:19.398Z,13.85
2024-01-04T10:28:31.053Z,10.90
2024-01-04T10:29:44.615Z,11.73
2024-01-04T10:30:56.670Z,9.00
2024-01-04T10:32:11.359Z,10.55
2024-01-04T10:33:23.173Z,11.32
2024-01-04T10:34:35.955Z,11.50
2024-01-04T10:35:47.657Z,13.85
2024-01-04T10:37:29.533Z,15.43
2024-01-04T10:38:41.383Z,11.20
2024-01-04T10:39:59.332Z,9.93
2024-01-04T10:41:11.310Z,10.95
2024-01-04T10:42:23.513Z,13.35
2024-01-04T10:43:35.386Z,14.45
2024-01-04T10:44:51.752Z,11.35
2024-01-04T10:46:06.753Z,15.43
2024-01-04T10:47:18.377Z,10.07
2024-01-04T10:48:30.253Z,16.42
2024-01-04T10:49:43.398Z,13.07
2024-01-04T10:50:58.164Z,11.80
2024-01-04T10:52:12.898Z,13.68
2024-01-04T10:53:26.380Z,11.65
2024-01-04T10:54:39.164Z,12.63
2024-01-04T10:55:53.807Z,11.52
2024-01-04T10:57:05.371Z,12.35
2024-01-04T10:58:17.448Z,11.77
2024-01-04T10:59:30.467Z,11.65
2024-01-04T11:00:42.084Z,12.48
2024-01-04T11:01:54.074Z,12.70
2024-01-04T11:03:07.023Z,14.32
2024-01-04T11:04:22.906Z,11.45
2024-01-04T11:05:35.152Z,12.50
2024-01-04T11:06:47.306Z,12.43
2024-01-04T11:07:59.087Z,13.98
2024-01-04T11:09:10.942Z,10.50
2024-01-04T11:10:23.006Z,15.02
2024-01-04T11:11:35.280Z,13.75
2024-01-04T11:12:48.053Z,13.45
2024-01-04T11:13:59.647Z,13.57
2024-01-04T11:15:14.149Z,15.63
2024-01-04T11:16:26.486Z,16.80
2024-01-04T11:17:39.119Z,16.83
2024-01-04T11:18:59.940Z,14.45
2024-01-04T11:20:22.576Z,15.13
2024-01-04T11:21:40.333Z,17.27
2024-01-04T11:23:04.201Z,15.80
2024-01-04T11:24:35.994Z,15.80
2024-01-04T11:26:07.840Z,18.02
2024-01-04T11:27:21.257Z,22.98
2024-01-04T11:28:39.874Z,22.80
2024-01-04T11:29:52.625Z,20.13
2024-01-04T11:31:04.753Z,20.25
2024-01-04T11:32:16.642Z,20.55
2024-01-04T11:33:28.959Z,24.85
2024-01-04T11:34:41.079Z,21.52
2024-01-04T11:35:52.892Z,20.73
2024-01-04T11:37:10.648Z,17.38
2024-01-04T11:38:25.926Z,16.33
2024-01-04T11:39:56.350Z,15.65
2024-01-04T11:41:07.904Z,14.15
2024-01-04T11:42:24.896Z,15.48
2024-01-04T11:43:37.973Z,15.80
2024-01-04T11:44:54.142Z,15.50
2024-01-04T11:46:19.167Z,14.30
2024-01-04T11:47:35.208Z,17.40
2024-01-04T11:48:56.077Z,20.63
2024-01-04T11:50:22.909Z,23.10
2024-01-04T11:51:41.571Z,15.55
2024-01-04T11:53:04.441Z,21.58
2024-01-04T11:54:16.866Z,17.98
2024-01-04T11:55:29.865Z,16.85
2024-01-04T11:56:41.608Z,16.23
2024-01-04T11:58:06.496Z,26.00
2024-01-04T11:59:19.726Z,24.15
2024-01-04T12:00:35.091Z,21.23
2024-01-04T12:01:46.824Z,16.20
2024-01-04T12:02:58.801Z,16.10
2024-01-04T12:04:17.307Z,17.17
2024-01-04T12:05:29.222Z,17.25
2024-01-04T12:06:47.351Z,17.95
2024-01-04T12:07:58.896Z,19.65
2024-01-04T12:09:11.556Z,23.17
2024-01-04T12:10:23.166Z,20.90
2024-01-04T12:11:35.944Z,16.40
2024-01-04T12:12:50.555Z,18.17
2024-01-04T12:14:06.599Z,18.65
2024-01-04T12:15:21.632Z,17.90
2024-01-04T12:16:33.302Z,20.70
2024-01-04T12:17:44.950Z,21.52
2024-01-04T12:18:57.071Z,18.83
2024-01-04T12:20:11.317Z,18.27
2024-01-04T12:21:23.159Z,17.98
2024-01-04T12:22:34.872Z,18.58
2024-01-04T12:23:46.881Z,20.40
2024-01-04T12:24:58.450Z,20.17
2024-01-04T12:26:10.361Z,21.35
2024-01-04T12:27:21.907Z,21.60
2024-01-04T12:28:33.952Z,20.75
2024-01-04T12:29:45.671Z,20.13
2024-01-04T12:30:57.322Z,19.63
2024-01-04T12:32:11.266Z,22.45
2024-01-04T12:33:29.095Z,24.15
2024-01-04T12:34:44.074Z,24.15
2024-01-04T12:35:59.577Z,18.17
2024-01-04T12:37:11.156Z,19.67
2024-01-04T12:38:25.816Z,19.88
2024-01-04T12:39:37.581Z,18.35
2024-01-04T12:40:49.096Z,18.05
2024-01-04T12:42:01.002Z,18.10
2024-01-04T12:43:14.126Z,18.45
2024-01-04T12:44:25.687Z,20.17
2024-01-04T12:45:37.481Z,20.40
2024-01-04T12:46:49.419Z,18.17
2024-01-04T12:48:04.122Z,17.25
2024-01-04T12:49:20.231Z,16.80
2024-01-04T12:50:38.977Z,16.80
2024-01-04T12:51:50.546Z,17.02
2024-01-04T12:53:02.675Z,17.10
2024-01-04T12:54:14.230Z,19.77
2024-01-04T12:55:28.771Z,16.98
2024-01-04T12:56:40.472Z,19.33
2024-01-04T12:57:52.048Z,24.58
2024-01-04T12:59:05.659Z,18.98
2024-01-04T13:00:17.570Z,37.75
2024-01-04T13:01:29.388Z,23.70
2024-01-04T13:02:41.011Z,22.40
2024-01-04T13:03:53.124Z,21.08
2024-01-04T13:05:05.869Z,22.77
2024-01-04T13:06:17.499Z,21.63
2024-01-04T13:07:29.380Z,24.90
2024-01-04T13:08:41.036Z,21.65
2024-01-04T13:09:52.618Z,23.55
2024-01-04T13:11:04.400Z,24.52
2024-01-04T13:12:15.926Z,22.42
2024-01-04T13:13:31.246Z,19.40
2024-01-04T13:14:45.458Z,17.00
2024-01-04T13:15:56.977Z,18.20
2024-01-04T13:17:08.513Z,21.08
2024-01-04T13:18:20.135Z,19.45
2024-01-04T13:19:31.795Z,18.30
2024-01-04T13:20:44.741Z,19.50
2024-01-04T13:21:57.107Z,17.27
2024-01-04T13:23:09.608Z,18.60
2024-01-04T13:24:21.201Z,17.13
2024-01-04T13:25:32.749Z,17.42
2024-01-04T13:26:45.263Z,21.27
2024-01-04T13:27:57.037Z,18.20
2024-01-04T13:29:09.478Z,34.55
2024-01-04T13:30:21.771Z,18.95
2024-01-04T13:31:33.432Z,30.35
2024-01-04T13:32:45.034Z,23.35
2024-01-04T13:33:56.813Z,23.35
2024-01-04T13:35:08.589Z,18.52
2024-01-04T13:36:20.229Z,18.48
2024-01-04T13:37:31.879Z,18.52
2024-01-04T13:38:43.579Z,19.27
2024-01-04T13:39:55.182Z,18.40
2024-01-04T13:41:06.670Z,18.60
2024-01-04T13:42:18.737Z,18.48
2024-01-04T13:43:30.250Z,19.55
2024-01-04T13:44:41.882Z,21.83
2024-01-04T13:45:53.800Z,20.63
2024-01-04T13:47:08.299Z,19.65
2024-01-04T13:48:20.529Z,21.67
2024-01-04T13:49:32.465Z,21.95
2024-01-04T13:50:44.914Z,21.42
2024-01-04T13:51:56.545Z,22.67
2024-01-04T13:53:10.470Z,20.55
2024-01-04T13:54:22.437Z,22.02
2024-01-04T13:55:34.048Z,20.17
2024-01-04T13:56:46.162Z,20.70
2024-01-04T13:57:57.929Z,19.65
2024-01-04T13:59:10.032Z,20.38
2024-01-04T14:00:21.700Z,20.52
2024-01-04T14:01:33.325Z,20.27
2024-01-04T14:02:44.905Z,19.38
2024-01-04T14:03:56.593Z,17.08
2024-01-04T14:05:10.199Z,18.00
2024-01-04T14:06:22.045Z,17.98
2024-01-04T14:07:33.605Z,21.55
2024-01-04T14:08:47.010Z,20.65
2024-01-04T14:09:58.739Z,19.50
2024-01-04T14:11:10.306Z,19.77
2024-01-04T14:12:22.071Z,23.13
2024-01-04T14:13:33.588Z,23.40
2024-01-04T14:14:45.149Z,25.33
2024-01-04T14:15:56.742Z,30.35
2024-01-04T14:17:08.263Z,28.65
2024-01-04T14:18:19.826Z,27.02
2024-01-04T14:19:31.526Z,19.90
2024-01-04T14:20:43.877Z,18.35
2024-01-04T14:21:55.483Z,23.30
2024-01-04T14:23:08.817Z,27.85
2024-01-04T14:24:20.472Z,25.08
2024-01-04T14:25:32.155Z,27.02
2024-01-04T14:26:43.890Z,21.80
2024-01-04T14:27:55.524Z,22.17
2024-01-04T14:29:07.541Z,21.95
2024-01-04T14:30:19.395Z,21.48
2024-01-04T14:31:31.409Z,15.07
2024-01-04T14:32:43.082Z,12.30
2024-01-04T14:33:55.229Z,12.25
2024-01-04T14:35:07.462Z,12.25
2024-01-04T14:36:19.180Z,13.25
2024-01-04T14:37:30.695Z,12.88
2024-01-04T14:38:42.201Z,12.77
2024-01-04T14:39:54.035Z,15.45
2024-01-04T14:41:06.367Z,15.25
2024-01-04T14:42:17.980Z,19.05
2024-01-04T14:43:29.514Z,20.40
2024-01-04T14:44:41.054Z,15.82
2024-01-04T14:45:52.613Z,21.55
2024-01-04T14:47:04.190Z,21.80
2024-01-04T14:48:15.873Z,19.40
2024-01-04T14:49:28.381Z,17.73
2024-01-04T14:50:40.243Z,14.25
2024-01-04T14:51:52.356Z,14.18
2024-01-04T14:53:04.585Z,13.52
2024-01-04T14:54:16.088Z,13.57
2024-01-04T14:55:27.748Z,13.52
2024-01-04T14:56:39.430Z,15.05
2024-01-04T14:57:50.970Z,13.70
2024-01-04T14:59:02.482Z,16.00
2024-01-04T15:00:14.875Z,14.40
2024-01-04T15:01:26.960Z,20.27
2024-01-04T15:02:38.880Z,24.52
2024-01-04T15:03:52.690Z,24.77
2024-01-04T15:05:04.996Z,24.52
2024-01-04T15:06:18.992Z,23.63
2024-01-04T15:07:33.928Z,23.83
2024-01-04T15:08:45.712Z,23.63
2024-01-04T15:09:57.847Z,23.67
2024-01-04T15:11:09.573Z,23.25
2024-01-04T15:12:21.303Z,22.27
2024-01-04T15:13:33.078Z,22.50
2024-01-04T15:14:44.617Z,56.20
2024-01-04T15:15:56.418Z,65.68
2024-01-04T15:17:08.016Z,39.75
2024-01-04T15:18:19.902Z,32.08
2024-01-04T15:19:31.664Z,28.20
2024-01-04T15:20:43.759Z,36.58
2024-01-04T15:21:55.332Z,41.70
2024-01-04T15:23:06.879Z,41.63
2024-01-04T15:24:18.427Z,37.03
2024-01-04T15:25:29.997Z,28.42
2024-01-04T15:26:42.001Z,29.00
2024-01-04T15:27:55.285Z,27.55
2024-01-04T15:29:06.880Z,29.55
2024-01-04T15:30:18.542Z,30.73
2024-01-04T15:31:30.721Z,37.08
2024-01-04T15:32:42.329Z,42.60
2024-01-04T15:33:54.188Z,45.00
2024-01-04T15:35:05.978Z,40.33
2024-01-04T15:36:18.710Z,36.22
2024-01-04T15:37:32.771Z,36.67